TR-0015 weather

Boranköy Air Base
Battalgazi, Malatya Province, Turkey

Public forecast

Using degrees Celsius for public forecast. Weather courtesy of forecast.io.

Closest aviation weather report (METAR) to Boranköy Air Base

Report is more than 6 hours old.

Closest report is Malatya Tulga Airport, 8.7 nm (16.1 km) SW. Retrieved 2018/09/17 11:50 UTC (2 years ago):

LTAO 171150Z 29002KT 9999 FEW040 28/03 Q1020 RMK RWY22 /////KT

Closest aviation forecast (TAF) to Boranköy Air Base

Closest forecast is Malatya Erhaç Airport, 13.0 nm (24.2 km) W. Retrieved 2020/05/31 12:00 UTC (5 hours ago):

TAF LTAT 311040Z 3112/0112 21008KT 9999 FEW040 BECMG 3116/3118 CAVOK BECMG 0108/0110 21015G25KT